createdAt,value
2023-05-24T00:02:13.585Z,-85
2023-05-24T00:04:42.364Z,-85
2023-05-24T00:07:09.862Z,-85
2023-05-24T00:09:37.558Z,-86
2023-05-24T00:12:05.403Z,-84
2023-05-24T00:14:32.751Z,-86
2023-05-24T00:17:00.373Z,-85
2023-05-24T00:19:27.709Z,-83
2023-05-24T00:21:55.201Z,-84
2023-05-24T00:24:22.513Z,-85
2023-05-24T00:26:50.934Z,-85
2023-05-24T00:29:18.208Z,-84
2023-05-24T00:31:45.519Z,-85
2023-05-24T00:34:13.009Z,-84
2023-05-24T00:36:40.318Z,-85
2023-05-24T00:39:07.718Z,-86
2023-05-24T00:41:34.969Z,-85
2023-05-24T00:44:02.812Z,-85
2023-05-24T00:46:33.624Z,-85
2023-05-24T00:49:02.029Z,-85
2023-05-24T00:51:30.223Z,-83
2023-05-24T00:53:57.670Z,-87
2023-05-24T00:56:25.468Z,-85
2023-05-24T00:58:53.197Z,-87
2023-05-24T01:01:20.925Z,-83
2023-05-24T01:03:48.733Z,-86
2023-05-24T01:06:16.208Z,-85
2023-05-24T01:08:57.613Z,-84
2023-05-24T01:11:56.889Z,-85
2023-05-24T01:14:53.742Z,-83
2023-05-24T01:17:54.097Z,-84
2023-05-24T01:20:24.653Z,-84
2023-05-24T01:23:19.763Z,-84
2023-05-24T01:26:03.459Z,-85
2023-05-24T01:28:34.422Z,-84
2023-05-24T01:31:02.739Z,-84
2023-05-24T01:33:30.930Z,-83
2023-05-24T01:35:58.416Z,-84
2023-05-24T01:38:25.729Z,-86
2023-05-24T01:41:06.016Z,-84
2023-05-24T01:43:48.862Z,-82
2023-05-24T01:46:36.863Z,-84
2023-05-24T01:49:29.658Z,-84
2023-05-24T01:52:16.482Z,-84
2023-05-24T01:54:48.839Z,-85
2023-05-24T01:57:22.040Z,-84
2023-05-24T01:59:51.519Z,-85
2023-05-24T02:02:19.524Z,-86
2023-05-24T02:04:47.171Z,-85
2023-05-24T02:07:14.427Z,-85
2023-05-24T02:09:41.648Z,-84
2023-05-24T02:12:10.069Z,-84
2023-05-24T02:14:37.361Z,-84
2023-05-24T02:17:05.953Z,-87
2023-05-24T02:19:33.513Z,-84
2023-05-24T02:22:01.287Z,-84
2023-05-24T02:24:28.610Z,-84
2023-05-24T02:26:56.239Z,-83
2023-05-24T02:29:23.668Z,-85
2023-05-24T02:31:51.063Z,-84
2023-05-24T02:34:18.299Z,-84
2023-05-24T02:36:45.901Z,-83
2023-05-24T02:39:13.185Z,-86
2023-05-24T02:41:40.769Z,-84
2023-05-24T02:44:08.344Z,-84
2023-05-24T02:46:35.810Z,-84
2023-05-24T02:49:03.413Z,-85
2023-05-24T02:51:31.013Z,-84
2023-05-24T02:53:58.582Z,-87
2023-05-24T02:56:25.919Z,-83
2023-05-24T02:58:53.592Z,-85
2023-05-24T03:01:20.899Z,-84
2023-05-24T03:03:48.526Z,-84
2023-05-24T03:06:15.884Z,-84
2023-05-24T03:08:43.740Z,-85
2023-05-24T03:11:12.596Z,-84
2023-05-24T03:13:40.494Z,-85
2023-05-24T03:16:08.605Z,-83
2023-05-24T03:18:36.561Z,-86
2023-05-24T03:21:04.643Z,-84
2023-05-24T03:23:32.356Z,-83
2023-05-24T03:26:00.406Z,-84
2023-05-24T03:28:28.101Z,-86
2023-05-24T03:30:55.784Z,-86
2023-05-24T03:33:23.257Z,-83
2023-05-24T03:35:50.671Z,-85
2023-05-24T03:38:18.129Z,-83
2023-05-24T03:40:45.500Z,-84
2023-05-24T03:43:12.869Z,-85
2023-05-24T03:45:40.455Z,-84
2023-05-24T03:48:08.318Z,-84
2023-05-24T03:50:35.964Z,-86
2023-05-24T03:53:06.049Z,-87
2023-05-24T03:55:33.373Z,-83
2023-05-24T03:58:01.102Z,-82
2023-05-24T04:00:31.230Z,-84
2023-05-24T04:02:58.679Z,-89
2023-05-24T04:05:26.134Z,-83
2023-05-24T04:07:53.993Z,-84
2023-05-24T04:10:21.487Z,-85
2023-05-24T04:12:49.127Z,-83
2023-05-24T04:15:16.835Z,-83
2023-05-24T04:17:45.568Z,-77
2023-05-24T04:20:14.042Z,-81
2023-05-24T04:22:41.718Z,-79
2023-05-24T04:25:09.698Z,-78
2023-05-24T04:27:37.060Z,-77
2023-05-24T04:30:05.019Z,-79
2023-05-24T04:32:32.422Z,-77
2023-05-24T04:35:00.806Z,-77
2023-05-24T04:37:28.840Z,-79
2023-05-24T04:39:56.185Z,-78
2023-05-24T04:42:23.628Z,-77
2023-05-24T04:44:51.177Z,-76
2023-05-24T04:47:18.452Z,-77
2023-05-24T04:49:45.683Z,-78
2023-05-24T04:52:13.037Z,-80
2023-05-24T04:54:40.301Z,-79
2023-05-24T04:57:07.834Z,-78
2023-05-24T04:59:35.360Z,-76
2023-05-24T05:02:02.794Z,-78
2023-05-24T05:04:30.128Z,-78
2023-05-24T05:06:57.998Z,-79
2023-05-24T05:09:25.632Z,-78
2023-05-24T05:11:52.953Z,-77
2023-05-24T05:14:20.653Z,-78
2023-05-24T05:16:48.506Z,-78
2023-05-24T05:19:15.945Z,-78
2023-05-24T05:21:43.406Z,-79
2023-05-24T05:24:11.028Z,-78
2023-05-24T05:26:38.373Z,-78
2023-05-24T05:29:05.809Z,-77
2023-05-24T05:31:33.381Z,-78
2023-05-24T05:34:00.694Z,-77
2023-05-24T05:36:27.978Z,-78
2023-05-24T05:38:55.281Z,-80
2023-05-24T05:41:22.721Z,-77
2023-05-24T05:43:50.203Z,-78
2023-05-24T05:46:17.527Z,-78
2023-05-24T05:48:46.476Z,-78
2023-05-24T05:51:14.134Z,-80
2023-05-24T05:53:41.547Z,-76
2023-05-24T05:56:08.916Z,-77
2023-05-24T05:58:36.276Z,-78
2023-05-24T06:01:03.557Z,-78
2023-05-24T06:03:31.287Z,-78
2023-05-24T06:05:58.866Z,-78
2023-05-24T06:08:26.215Z,-79
2023-05-24T06:10:53.547Z,-78
2023-05-24T06:13:20.795Z,-78
2023-05-24T06:15:48.283Z,-78
2023-05-24T06:18:15.640Z,-80
2023-05-24T06:20:43.111Z,-78
2023-05-24T06:23:10.729Z,-77
2023-05-24T06:25:38.439Z,-79
2023-05-24T06:28:06.023Z,-79
2023-05-24T06:30:33.894Z,-79
2023-05-24T06:33:01.392Z,-80
2023-05-24T06:35:28.713Z,-78
2023-05-24T06:37:56.010Z,-80
2023-05-24T06:40:23.385Z,-80
2023-05-24T06:42:50.657Z,-76
2023-05-24T06:45:17.930Z,-77
2023-05-24T06:47:45.370Z,-78
2023-05-24T06:50:12.740Z,-79
2023-05-24T06:52:40.342Z,-76
2023-05-24T06:55:08.260Z,-79
2023-05-24T06:57:35.780Z,-77
2023-05-24T07:00:04.007Z,-78
2023-05-24T07:02:31.372Z,-77
2023-05-24T07:04:58.992Z,-77
2023-05-24T07:07:26.355Z,-80
2023-05-24T07:09:53.643Z,-76
2023-05-24T07:12:20.972Z,-78
2023-05-24T07:14:48.455Z,-79
2023-05-24T07:17:16.132Z,-78
2023-05-24T07:19:43.744Z,-77
2023-05-24T07:22:11.524Z,-76
2023-05-24T07:24:38.763Z,-76
2023-05-24T07:27:06.306Z,-77
2023-05-24T07:29:33.705Z,-77
2023-05-24T07:32:01.094Z,-78
2023-05-24T07:34:28.450Z,-77
2023-05-24T07:36:56.439Z,-77
2023-05-24T07:39:23.889Z,-80
2023-05-24T07:41:51.658Z,-78
2023-05-24T07:44:19.598Z,-79
2023-05-24T07:46:47.323Z,-80
2023-05-24T07:49:14.817Z,-76
2023-05-24T07:51:42.243Z,-76
2023-05-24T07:54:09.791Z,-78
2023-05-24T07:56:37.385Z,-77
2023-05-24T07:59:04.816Z,-79
2023-05-24T08:01:33.388Z,-77
2023-05-24T08:04:02.585Z,-78
2023-05-24T08:06:30.975Z,-78
2023-05-24T08:08:58.526Z,-79
2023-05-24T08:11:25.791Z,-77
2023-05-24T08:13:53.171Z,-78
2023-05-24T08:16:20.602Z,-78
2023-05-24T08:18:48.093Z,-77
2023-05-24T08:21:15.508Z,-78
2023-05-24T08:23:42.803Z,-78
2023-05-24T08:26:10.259Z,-76
2023-05-24T08:28:37.654Z,-78
2023-05-24T08:31:05.433Z,-76
2023-05-24T08:33:33.275Z,-77
2023-05-24T08:36:00.585Z,-71
2023-05-24T08:38:28.157Z,-77
2023-05-24T08:40:55.984Z,-77
2023-05-24T08:43:24.762Z,-78
2023-05-24T08:45:54.270Z,-78
2023-05-24T08:48:24.077Z,-76
2023-05-24T08:50:52.399Z,-76
2023-05-24T08:53:21.915Z,-80
2023-05-24T08:55:50.601Z,-79
2023-05-24T08:58:18.622Z,-79
2023-05-24T09:00:46.585Z,-79
2023-05-24T09:03:14.748Z,-77
2023-05-24T09:05:43.141Z,-83
2023-05-24T09:08:11.932Z,-79
2023-05-24T09:10:53.043Z,-76
2023-05-24T09:13:24.350Z,-80
2023-05-24T09:15:52.699Z,-75
2023-05-24T09:18:20.367Z,-79
2023-05-24T09:20:47.889Z,-77
2023-05-24T09:23:17.315Z,-79
2023-05-24T09:25:48.700Z,-77
2023-05-24T09:28:18.490Z,-78
2023-05-24T09:30:57.910Z,-77
2023-05-24T09:33:30.384Z,-76
2023-05-24T09:36:04.191Z,-77
2023-05-24T09:38:31.982Z,-77
2023-05-24T09:41:05.305Z,-76
2023-05-24T09:43:34.656Z,-77
2023-05-24T09:46:05.005Z,-77
2023-05-24T09:48:32.725Z,-77
2023-05-24T09:51:06.760Z,-76
2023-05-24T09:53:36.447Z,-79
2023-05-24T09:56:07.702Z,-77
2023-05-24T09:58:37.571Z,-76
2023-05-24T10:01:09.772Z,-78
2023-05-24T10:03:38.200Z,-77
2023-05-24T10:06:12.188Z,-77
2023-05-24T10:08:40.312Z,-77
2023-05-24T10:11:07.629Z,-79
2023-05-24T10:13:36.680Z,-79
2023-05-24T10:16:04.883Z,-78
2023-05-24T10:18:32.557Z,-78
2023-05-24T10:21:02.213Z,-78
2023-05-24T10:23:32.602Z,-77
2023-05-24T10:26:10.498Z,-79
2023-05-24T10:29:01.682Z,-78
2023-05-24T10:31:34.577Z,-77
2023-05-24T10:34:08.412Z,-80
2023-05-24T10:36:37.358Z,-79
2023-05-24T10:39:08.026Z,-80
2023-05-24T10:41:42.308Z,-80
2023-05-24T10:44:14.129Z,-78
2023-05-24T10:47:15.529Z,-77
2023-05-24T10:49:54.616Z,-80
2023-05-24T10:52:22.155Z,-76
2023-05-24T10:55:11.116Z,-77
2023-05-24T10:57:40.128Z,-78
2023-05-24T11:03:06.625Z,-77
2023-05-24T11:05:49.069Z,-77
2023-05-24T11:08:33.668Z,-78
2023-05-24T11:11:25.494Z,-77
2023-05-24T11:13:57.202Z,-77
2023-05-24T11:16:36.566Z,-77
2023-05-24T11:19:31.017Z,-77
2023-05-24T11:22:00.337Z,-78
2023-05-24T11:24:28.701Z,-78
2023-05-24T11:26:57.249Z,-78
2023-05-24T11:29:30.686Z,-76
2023-05-24T11:32:00.595Z,-76
2023-05-24T11:34:27.926Z,-77
2023-05-24T11:36:55.541Z,-77
2023-05-24T11:39:33.256Z,-77
2023-05-24T11:42:04.882Z,-78
2023-05-24T11:44:36.764Z,-78
2023-05-24T11:47:07.784Z,-79
2023-05-24T11:49:35.814Z,-80
2023-05-24T11:52:03.378Z,-77
2023-05-24T11:54:31.748Z,-76
2023-05-24T11:56:59.610Z,-78
2023-05-24T11:59:29.141Z,-79
2023-05-24T12:02:00.749Z,-77
2023-05-24T12:04:30.721Z,-78
2023-05-24T12:06:58.999Z,-76
2023-05-24T12:09:27.912Z,-77
2023-05-24T12:11:55.944Z,-78
2023-05-24T12:14:34.647Z,-77
2023-05-24T12:17:02.798Z,-77
2023-05-24T12:19:34.110Z,-80
2023-05-24T12:22:07.282Z,-79
2023-05-24T12:24:37.207Z,-79
2023-05-24T12:27:05.582Z,-79
2023-05-24T12:29:41.892Z,-78
2023-05-24T12:32:13.106Z,-77
2023-05-24T12:34:43.243Z,-79
2023-05-24T12:37:13.435Z,-77
2023-05-24T12:39:44.799Z,-77
2023-05-24T12:42:13.117Z,-78
2023-05-24T12:44:41.142Z,-77
2023-05-24T12:47:09.110Z,-77
2023-05-24T12:49:36.922Z,-81
2023-05-24T12:52:08.496Z,-78
2023-05-24T12:54:36.219Z,-80
2023-05-24T12:57:04.483Z,-81
2023-05-24T12:59:31.896Z,-78
2023-05-24T13:01:59.155Z,-79
2023-05-24T13:04:26.672Z,-77
2023-05-24T13:06:54.446Z,-77
2023-05-24T13:09:22.250Z,-79
2023-05-24T13:11:49.921Z,-77
2023-05-24T13:14:17.797Z,-77
2023-05-24T13:16:45.435Z,-78
2023-05-24T13:19:13.270Z,-77
2023-05-24T13:21:40.936Z,-82
2023-05-24T13:24:09.769Z,-77
2023-05-24T13:26:39.414Z,-84
2023-05-24T13:31:38.409Z,-79
2023-05-24T13:34:06.589Z,-78
2023-05-24T13:36:35.725Z,-80
2023-05-24T13:39:14.957Z,-77
2023-05-24T13:41:44.578Z,-79
2023-05-24T13:44:16.233Z,-78
2023-05-24T13:46:44.547Z,-79
2023-05-24T13:49:13.322Z,-77
2023-05-24T13:51:41.947Z,-78
2023-05-24T13:54:09.436Z,-77
2023-05-24T13:56:37.293Z,-78
2023-05-24T13:59:06.858Z,-77
2023-05-24T14:01:34.981Z,-77
2023-05-24T14:04:03.633Z,-78
2023-05-24T14:06:32.586Z,-78
2023-05-24T14:09:00.731Z,-77
2023-05-24T14:11:28.541Z,-78
2023-05-24T14:14:43.737Z,-79
2023-05-24T14:16:43.614Z,-82
2023-05-24T14:19:10.960Z,-80
2023-05-24T14:21:38.575Z,-80
2023-05-24T14:24:05.997Z,-79
2023-05-24T14:26:33.460Z,-82
2023-05-24T14:29:01.012Z,-82
2023-05-24T14:31:28.356Z,-82
2023-05-24T14:33:56.077Z,-82
2023-05-24T14:36:23.452Z,-81
2023-05-24T14:38:50.874Z,-82
2023-05-24T14:41:18.591Z,-82
2023-05-24T14:43:45.965Z,-84
2023-05-24T14:46:14.068Z,-82
2023-05-24T14:48:41.733Z,-80
2023-05-24T14:51:09.617Z,-82
2023-05-24T14:53:37.703Z,-79
2023-05-24T14:56:05.541Z,-81
2023-05-24T14:58:33.168Z,-82
2023-05-24T15:01:01.284Z,-82
2023-05-24T15:03:29.195Z,-81
2023-05-24T15:05:57.115Z,-83
2023-05-24T15:08:24.803Z,-81
2023-05-24T15:10:52.485Z,-78
2023-05-24T15:13:20.399Z,-83
2023-05-24T15:15:48.175Z,-82
2023-05-24T15:18:15.970Z,-82
2023-05-24T15:20:44.168Z,-81
2023-05-24T15:23:12.366Z,-82
2023-05-24T15:25:40.199Z,-83
2023-05-24T15:28:07.865Z,-82
2023-05-24T15:30:35.665Z,-84
2023-05-24T15:33:03.675Z,-82
2023-05-24T15:35:31.138Z,-83
2023-05-24T15:37:58.518Z,-79
2023-05-24T15:40:25.912Z,-80
2023-05-24T15:42:53.306Z,-79
2023-05-24T15:45:20.659Z,-83
2023-05-24T15:47:48.158Z,-82
2023-05-24T15:50:15.595Z,-81
2023-05-24T15:52:44.230Z,-81
2023-05-24T15:55:11.883Z,-80
2023-05-24T15:57:39.724Z,-81
2023-05-24T16:00:08.230Z,-84
2023-05-24T16:02:35.923Z,-84
2023-05-24T16:05:03.863Z,-83
2023-05-24T16:07:31.382Z,-84
2023-05-24T16:09:58.899Z,-82
2023-05-24T16:12:26.293Z,-83
2023-05-24T16:14:53.736Z,-83
2023-05-24T16:17:21.268Z,-82
2023-05-24T16:19:48.793Z,-82
2023-05-24T16:22:16.312Z,-83
2023-05-24T16:24:44.279Z,-80
2023-05-24T16:27:11.669Z,-82
2023-05-24T16:29:39.572Z,-83
2023-05-24T16:32:07.482Z,-81
2023-05-24T16:34:52.144Z,-83
2023-05-24T16:37:23.157Z,-82
2023-05-24T16:39:50.841Z,-84
2023-05-24T16:42:18.566Z,-82
2023-05-24T16:44:46.364Z,-81
2023-05-24T16:47:14.313Z,-82
2023-05-24T16:49:42.236Z,-79
2023-05-24T16:52:09.967Z,-82
2023-05-24T16:54:37.630Z,-81
2023-05-24T16:57:05.389Z,-83
2023-05-24T16:59:33.867Z,-80
2023-05-24T17:02:01.597Z,-82
2023-05-24T17:04:29.287Z,-81
2023-05-24T17:06:57.209Z,-81
2023-05-24T17:09:25.007Z,-81
2023-05-24T17:11:52.761Z,-80
2023-05-24T17:14:20.460Z,-82
2023-05-24T17:16:48.152Z,-81
2023-05-24T17:19:16.416Z,-83
2023-05-24T17:21:44.094Z,-81
2023-05-24T17:24:12.074Z,-83
2023-05-24T17:26:39.772Z,-82
2023-05-24T17:29:07.648Z,-83
2023-05-24T17:31:35.555Z,-79
2023-05-24T17:34:03.631Z,-79
2023-05-24T17:36:31.302Z,-78
2023-05-24T17:38:59.059Z,-80
2023-05-24T17:41:26.797Z,-78
2023-05-24T17:43:54.767Z,-80
2023-05-24T17:46:22.704Z,-78
2023-05-24T17:48:50.437Z,-79
2023-05-24T17:51:18.331Z,-78
2023-05-24T17:53:46.594Z,-79
2023-05-24T17:56:14.205Z,-80
2023-05-24T17:58:41.541Z,-79
2023-05-24T18:01:11.319Z,-81
2023-05-24T18:03:39.399Z,-78
2023-05-24T18:06:07.876Z,-78
2023-05-24T18:08:37.428Z,-78
2023-05-24T18:11:05.725Z,-79
2023-05-24T18:13:33.993Z,-78
2023-05-24T18:16:01.614Z,-79
2023-05-24T18:18:29.775Z,-83
2023-05-24T18:20:57.155Z,-82
2023-05-24T18:23:24.543Z,-81
2023-05-24T18:26:00.799Z,-78
2023-05-24T18:28:30.400Z,-81
2023-05-24T18:30:57.709Z,-81
2023-05-24T18:33:25.053Z,-80
2023-05-24T18:35:52.554Z,-76
2023-05-24T18:38:20.107Z,-81
2023-05-24T18:40:47.484Z,-81
2023-05-24T18:43:14.876Z,-81
2023-05-24T18:45:42.553Z,-79
2023-05-24T18:48:10.024Z,-80
2023-05-24T18:50:37.423Z,-82
2023-05-24T18:53:04.832Z,-80
2023-05-24T18:55:32.133Z,-83
2023-05-24T18:57:59.551Z,-79
2023-05-24T19:00:28.420Z,-83
2023-05-24T19:02:55.931Z,-81
2023-05-24T19:05:23.376Z,-81
2023-05-24T19:07:52.885Z,-82
2023-05-24T19:10:20.335Z,-80
2023-05-24T19:12:47.623Z,-82
2023-05-24T19:15:15.183Z,-81
2023-05-24T19:17:42.578Z,-82
2023-05-24T19:20:10.672Z,-81
2023-05-24T19:22:38.047Z,-84
2023-05-24T19:25:06.124Z,-82
2023-05-24T19:27:34.965Z,-83
2023-05-24T19:30:04.123Z,-81
2023-05-24T19:32:31.616Z,-79
2023-05-24T19:34:58.954Z,-82
2023-05-24T19:37:26.498Z,-83
2023-05-24T19:39:53.841Z,-81
2023-05-24T19:42:21.222Z,-82
2023-05-24T19:44:48.682Z,-82
2023-05-24T19:47:15.989Z,-83
2023-05-24T19:49:43.374Z,-82
2023-05-24T19:52:10.699Z,-82
2023-05-24T19:54:38.283Z,-82
2023-05-24T19:57:05.903Z,-83
2023-05-24T19:59:33.545Z,-82
2023-05-24T20:02:00.931Z,-83
2023-05-24T20:04:28.191Z,-81
2023-05-24T20:06:55.547Z,-83
2023-05-24T20:09:24.296Z,-78
2023-05-24T20:11:51.718Z,-82
2023-05-24T20:14:19.233Z,-82
2023-05-24T20:16:46.612Z,-82
2023-05-24T20:19:14.292Z,-82
2023-05-24T20:21:41.899Z,-83
2023-05-24T20:24:09.446Z,-81
2023-05-24T20:26:36.877Z,-82
2023-05-24T20:29:04.506Z,-83
2023-05-24T20:31:31.829Z,-82
2023-05-24T20:33:59.149Z,-80
2023-05-24T20:36:26.623Z,-83
2023-05-24T20:38:53.903Z,-81
2023-05-24T20:41:21.247Z,-83
2023-05-24T20:43:48.722Z,-81
2023-05-24T20:46:16.369Z,-82
2023-05-24T20:48:43.649Z,-84
2023-05-24T20:51:11.080Z,-82
2023-05-24T20:53:38.457Z,-81
2023-05-24T20:56:06.028Z,-83
2023-05-24T20:58:33.531Z,-82
2023-05-24T21:01:00.915Z,-83
2023-05-24T21:03:28.316Z,-82
2023-05-24T21:05:55.616Z,-81
2023-05-24T21:08:23.050Z,-77
2023-05-24T21:10:50.767Z,-82
2023-05-24T21:13:18.060Z,-82
2023-05-24T21:15:45.759Z,-83
2023-05-24T21:18:13.316Z,-82
2023-05-24T21:20:40.940Z,-83
2023-05-24T21:23:09.153Z,-82
2023-05-24T21:25:36.516Z,-83
2023-05-24T21:28:03.921Z,-82
2023-05-24T21:30:31.464Z,-80
2023-05-24T21:32:58.808Z,-83
2023-05-24T21:35:26.605Z,-83
2023-05-24T21:37:53.944Z,-82
2023-05-24T21:40:21.479Z,-81
2023-05-24T21:42:48.811Z,-80
2023-05-24T21:45:16.302Z,-83
2023-05-24T21:47:43.910Z,-82
2023-05-24T21:50:11.530Z,-83
2023-05-24T21:52:38.947Z,-83
2023-05-24T21:55:06.910Z,-82
2023-05-24T21:57:34.229Z,-81
2023-05-24T22:00:02.626Z,-81
2023-05-24T22:02:30.053Z,-81
2023-05-24T22:04:57.625Z,-83
2023-05-24T22:07:24.958Z,-83
2023-05-24T22:09:52.406Z,-82
2023-05-24T22:12:19.844Z,-82
2023-05-24T22:14:47.305Z,-82
2023-05-24T22:17:14.711Z,-82
2023-05-24T22:19:42.114Z,-82
2023-05-24T22:22:09.615Z,-82
2023-05-24T22:24:36.967Z,-81
2023-05-24T22:27:05.175Z,-83
2023-05-24T22:29:32.716Z,-82
2023-05-24T22:32:00.046Z,-83
2023-05-24T22:34:29.199Z,-84
2023-05-24T22:36:57.193Z,-82
2023-05-24T22:39:24.950Z,-82
2023-05-24T22:41:52.984Z,-83
2023-05-24T22:44:21.095Z,-82
2023-05-24T22:46:48.893Z,-82
2023-05-24T22:49:16.575Z,-82
2023-05-24T22:51:44.049Z,-81
2023-05-24T22:54:11.771Z,-83
2023-05-24T22:56:39.676Z,-83
2023-05-24T22:59:07.963Z,-81
2023-05-24T23:01:35.481Z,-81
2023-05-24T23:04:18.989Z,-82
2023-05-24T23:06:47.832Z,-82
2023-05-24T23:09:15.378Z,-82
2023-05-24T23:11:42.771Z,-81
2023-05-24T23:14:10.293Z,-82
2023-05-24T23:16:37.705Z,-83
2023-05-24T23:19:05.145Z,-82
2023-05-24T23:21:33.246Z,-83
2023-05-24T23:24:01.145Z,-82
2023-05-24T23:26:29.060Z,-82
2023-05-24T23:28:56.633Z,-82
2023-05-24T23:31:24.192Z,-81
2023-05-24T23:33:51.570Z,-82
2023-05-24T23:36:18.899Z,-83
2023-05-24T23:38:46.254Z,-83
2023-05-24T23:41:13.852Z,-82
2023-05-24T23:43:41.182Z,-81
2023-05-24T23:46:08.955Z,-82
2023-05-24T23:48:36.430Z,-83
2023-05-24T23:51:04.092Z,-82
2023-05-24T23:53:31.499Z,-84
2023-05-24T23:55:58.873Z,-79
2023-05-24T23:58:26.319Z,-82
